Map

Track Data

SID SEASON NUMBER BASIN SUBBASIN NAME ISO_TIME NATURE LAT LON WMO_WIND WMO_PRES WMO_AGENCY TRACK_TYPE DIST2LAND LANDFALL IFLAG USA_AGENCY USA_ATCF_ID USA_LAT USA_LON USA_RECORD USA_STATUS USA_WIND USA_PRES USA_SSHS USA_R34_NE USA_R34_SE USA_R34_SW USA_R34_NW USA_R50_NE USA_R50_SE USA_R50_SW USA_R50_NW USA_R64_NE USA_R64_SE USA_R64_SW USA_R64_NW USA_POCI USA_ROCI USA_RMW USA_EYE TOKYO_LAT TOKYO_LON TOKYO_GRADE TOKYO_WIND TOKYO_PRES TOKYO_R50_DIR TOKYO_R50_LONG TOKYO_R50_SHORT TOKYO_R30_DIR TOKYO_R30_LONG TOKYO_R30_SHORT TOKYO_LAND CMA_LAT CMA_LON CMA_CAT CMA_WIND CMA_PRES HKO_LAT HKO_LON HKO_CAT HKO_WIND HKO_PRES NEWDELHI_LAT NEWDELHI_LON NEWDELHI_GRADE NEWDELHI_WIND NEWDELHI_PRES NEWDELHI_CI NEWDELHI_DP NEWDELHI_POCI REUNION_LAT REUNION_LON REUNION_TYPE REUNION_WIND REUNION_PRES REUNION_TNUM REUNION_CI REUNION_RMW REUNION_R34_NE REUNION_R34_SE REUNION_R34_SW REUNION_R34_NW REUNION_R50_NE REUNION_R50_SE REUNION_R50_SW REUNION_R50_NW REUNION_R64_NE REUNION_R64_SE REUNION_R64_SW REUNION_R64_NW BOM_LAT BOM_LON BOM_TYPE BOM_WIND BOM_PRES BOM_TNUM BOM_CI BOM_RMW BOM_R34_NE BOM_R34_SE BOM_R34_SW BOM_R34_NW BOM_R50_NE BOM_R50_SE BOM_R50_SW BOM_R50_NW BOM_R64_NE BOM_R64_SE BOM_R64_SW BOM_R64_NW BOM_ROCI BOM_POCI BOM_EYE BOM_POS_METHOD BOM_PRES_METHOD NADI_LAT NADI_LON NADI_CAT NADI_WIND NADI_PRES WELLINGTON_LAT WELLINGTON_LON WELLINGTON_WIND WELLINGTON_PRES DS824_LAT DS824_LON DS824_STAGE DS824_WIND DS824_PRES TD9636_LAT TD9636_LON TD9636_STAGE TD9636_WIND TD9636_PRES TD9635_LAT TD9635_LON TD9635_WIND TD9635_PRES TD9635_ROCI NEUMANN_LAT NEUMANN_LON NEUMANN_CLASS NEUMANN_WIND NEUMANN_PRES MLC_LAT MLC_LON MLC_CLASS MLC_WIND MLC_PRES USA_GUST BOM_GUST BOM_GUST_PER REUNION_GUST REUNION_GUST_PER USA_SEAHGT USA_SEARAD_NE USA_SEARAD_SE USA_SEARAD_SW USA_SEARAD_NW STORM_SPEED STORM_DIR
1904288N13085 1904 40 NI BB NOT_NAMED 1904-10-14 00:00:00 TS 12.7000 85.1000 main 524 499 _________O____ -1 12.7000 85.1000 TC 34 7 315
1904288N13085 1904 40 NI BB NOT_NAMED 1904-10-14 03:00:00 TS 12.9334 84.8601 main 499 453 _________PO___ -1 13.0501 84.7402 TC 36 12.7000 85.1000 2 8 316
1904288N13085 1904 40 NI BB NOT_NAMED 1904-10-14 06:00:00 TS 13.2551 84.5508 main 444 398 _________OP___ -1 13.4000 84.4000 TC 39 13.0378 84.7770 2 9 318
1904288N13085 1904 40 NI BB NOT_NAMED 1904-10-14 09:00:00 TS 13.5915 84.2469 main 392 353 _________PP___ -1 13.7499 84.0924 TC 42 13.3803 84.4529 2 9 319
1904288N13085 1904 40 NI BB NOT_NAMED 1904-10-14 12:00:00 TS 13.9163 83.9637 main 353 298 _________OP___ -1 14.1000 83.8000 TC 45 13.7326 84.1273 2 9 320
1904288N13085 1904 40 NI BB NOT_NAMED 1904-10-14 15:00:00 TS 14.2712 83.6499 main 292 252 _________PO___ -1 14.4425 83.4999 TC 45 14.1000 83.8000 3 10 320
1904288N13085 1904 40 NI BB NOT_NAMED 1904-10-14 18:00:00 TS 14.6420 83.3363 main 248 193 _________OP___ -1 14.8000 83.2000 TC 45 14.4840 83.4726 3 10 322
1904288N13085 1904 40 NI BB NOT_NAMED 1904-10-14 21:00:00 TS 15.0438 83.0201 main 193 138 _________PP___ -1 15.2150 82.8851 TC 45 14.8725 83.1552 3 10 323
1904288N13085 1904 40 NI BB NOT_NAMED 1904-10-15 00:00:00 TS 15.4249 82.7301 main 138 99 _________OP___ -1 15.6000 82.6000 TC 45 15.2497 82.8602 3 9 323
1904288N13085 1904 40 NI BB NOT_NAMED 1904-10-15 03:00:00 TS 15.7325 82.4887 main 99 59 _________PO___ -1 15.8649 82.3773 TC 41 15.6000 82.6000 3 7 324
1904288N13085 1904 40 NI BB NOT_NAMED 1904-10-15 06:00:00 TS 15.9956 82.2962 main 59 22 _________OP___ -1 16.1000 82.2000 TC 37 15.8913 82.3924 3 6 328
1904288N13085 1904 40 NI BB NOT_NAMED 1904-10-15 09:00:00 TS 16.2711 82.1345 main 22 0 _________PP___ -1 16.3850 82.0499 TC 33 16.1572 82.2191 3 6 332
1904288N13085 1904 40 NI BB NOT_NAMED 1904-10-15 12:00:00 TS 16.5597 81.9806 main 0 0 _________OP___ -1 16.7000 81.9000 TC 30 16.4195 82.0612 3 7 332
1904288N13085 1904 40 NI BB NOT_NAMED 1904-10-15 15:00:00 TS 16.8713 81.8037 main 0 0 _________PO___ -1 17.0425 81.7075 TC 30 16.7000 81.9000 1 7 329
1904288N13085 1904 40 NI BB NOT_NAMED 1904-10-15 18:00:00 TS 17.1940 81.5855 main 0 0 _________OP___ -1 17.4000 81.5000 TC 30 16.9880 81.6710 1 8 327
1904288N13085 1904 40 NI BB NOT_NAMED 1904-10-15 21:00:00 TS 17.5077 81.3628 main 0 0 _________PP___ -1 17.7125 81.2849 TC 30 17.3028 81.4406 1 8 330
1904288N13085 1904 40 NI BB NOT_NAMED 1904-10-16 00:00:00 TS 17.8831 81.1700 main 0 0 _________OP___ -1 18.1000 81.1000 TC 30 17.6661 81.2399 1 9 340
1904288N13085 1904 40 NI BB NOT_NAMED 1904-10-16 03:00:00 TS 18.3812 81.0239 main 0 0 _________PO___ -1 18.6625 80.9478 TC 30 18.1000 81.1000 1 11 350
1904288N13085 1904 40 NI BB NOT_NAMED 1904-10-16 06:00:00 TS 18.9721 80.9640 main 0 0 _________OP___ -1 19.3000 80.9000 TC 30 18.6442 81.0279 1 12 0
1904288N13085 1904 40 NI BB NOT_NAMED 1904-10-16 09:00:00 TS 19.5849 81.0138 main 0 0 _________PP___ -1 19.9150 81.0047 TC 30 19.2547 81.0228 1 12 8
1904288N13085 1904 40 NI BB NOT_NAMED 1904-10-16 12:00:00 TS 20.1940 81.1406 main 0 0 _________OP___ -1 20.5000 81.2000 TC 30 19.8879 81.0813 1 12 13
1904288N13085 1904 40 NI BB NOT_NAMED 1904-10-16 15:00:00 TS 20.7575 81.2926 main 0 0 _________PO___ -1 21.0150 81.3852 TC 30 20.5000 81.2000 1 11 16
1904288N13085 1904 40 NI BB NOT_NAMED 1904-10-16 18:00:00 TS 21.2469 81.4708 main 0 0 _________OP___ -1 21.5000 81.6000 TC 30 21.0571 81.3739 1 11 21
1904288N13085 1904 40 NI BB NOT_NAMED 1904-10-16 21:00:00 TS 21.7373 81.6914 main 0 0 _________PP___ -1 21.9951 81.8421 TC 30 21.5654 81.5910 1 10 24
1904288N13085 1904 40 NI BB NOT_NAMED 1904-10-17 00:00:00 TS 22.1940 81.9251 main 0 0 _________OP___ -1 22.5000 82.1000 TC 30 22.0410 81.8377 1 9 26
1904288N13085 1904 40 NI BB NOT_NAMED 1904-10-17 03:00:00 NR 22.5000 82.1000 main 0 __________O___ -1 TC 22.5000 82.1000 1 7 28

About IBTrACS Database

This database is a web-friendly format of International Best Track Archive for Climate Stewardship (IBTrACS), a global best track data archive curated by NOAA dating back to 1842.

Updated: 2021-10-21